sensor_id;sensor_type;location;lat;lon;timestamp;temperature;humidity
20732;DHT22;10527;52.124;5.196;2023-02-15T00:00:06;4.60;99.90
20732;DHT22;10527;52.124;5.196;2023-02-15T00:02:34;4.60;99.90
20732;DHT22;10527;52.124;5.196;2023-02-15T00:05:08;4.60;99.90
20732;DHT22;10527;52.124;5.196;2023-02-15T00:07:37;4.60;99.90
20732;DHT22;10527;52.124;5.196;2023-02-15T00:10:08;4.50;99.90
20732;DHT22;10527;52.124;5.196;2023-02-15T00:12:35;4.50;99.90
20732;DHT22;10527;52.124;5.196;2023-02-15T00:15:02;4.50;99.90
20732;DHT22;10527;52.124;5.196;2023-02-15T00:17:29;4.50;99.90
20732;DHT22;10527;52.124;5.196;2023-02-15T00:19:56;4.40;99.90
20732;DHT22;10527;52.124;5.196;2023-02-15T00:22:26;4.40;99.90
20732;DHT22;10527;52.124;5.196;2023-02-15T00:24:53;4.40;99.90
20732;DHT22;10527;52.124;5.196;2023-02-15T00:27:19;4.40;99.90
20732;DHT22;10527;52.124;5.196;2023-02-15T00:29:46;4.30;99.90
20732;DHT22;10527;52.124;5.196;2023-02-15T00:32:16;4.40;99.90
20732;DHT22;10527;52.124;5.196;2023-02-15T00:34:42;4.40;99.90
20732;DHT22;10527;52.124;5.196;2023-02-15T00:37:09;4.40;99.90
20732;DHT22;10527;52.124;5.196;2023-02-15T00:39:36;4.40;99.90
20732;DHT22;10527;52.124;5.196;2023-02-15T00:42:03;4.30;99.90
20732;DHT22;10527;52.124;5.196;2023-02-15T00:44:30;4.30;99.90
20732;DHT22;10527;52.124;5.196;2023-02-15T00:46:56;4.20;99.90
20732;DHT22;10527;52.124;5.196;2023-02-15T00:49:23;4.20;99.90
20732;DHT22;10527;52.124;5.196;2023-02-15T00:51:50;4.20;99.90
20732;DHT22;10527;52.124;5.196;2023-02-15T00:54:17;4.20;99.90
20732;DHT22;10527;52.124;5.196;2023-02-15T00:56:47;4.20;99.90
20732;DHT22;10527;52.124;5.196;2023-02-15T00:59:13;4.10;99.90
20732;DHT22;10527;52.124;5.196;2023-02-15T01:01:43;4.00;99.90
20732;DHT22;10527;52.124;5.196;2023-02-15T01:04:10;4.00;99.90
20732;DHT22;10527;52.124;5.196;2023-02-15T01:06:37;4.00;99.90
20732;DHT22;10527;52.124;5.196;2023-02-15T01:09:04;4.00;99.90
20732;DHT22;10527;52.124;5.196;2023-02-15T01:11:33;3.90;99.90
20732;DHT22;10527;52.124;5.196;2023-02-15T01:14:00;4.00;99.90
20732;DHT22;10527;52.124;5.196;2023-02-15T01:16:28;3.90;99.90
20732;DHT22;10527;52.124;5.196;2023-02-15T01:18:55;4.00;99.90
20732;DHT22;10527;52.124;5.196;2023-02-15T01:21:24;4.00;99.90
20732;DHT22;10527;52.124;5.196;2023-02-15T01:23:52;3.90;99.90
20732;DHT22;10527;52.124;5.196;2023-02-15T01:26:19;3.90;99.90
20732;DHT22;10527;52.124;5.196;2023-02-15T01:28:46;3.90;99.90
20732;DHT22;10527;52.124;5.196;2023-02-15T01:31:18;3.90;99.90
20732;DHT22;10527;52.124;5.196;2023-02-15T01:33:47;3.90;99.90
20732;DHT22;10527;52.124;5.196;2023-02-15T01:36:14;3.90;99.90
20732;DHT22;10527;52.124;5.196;2023-02-15T01:38:49;3.90;99.90
20732;DHT22;10527;52.124;5.196;2023-02-15T01:41:15;3.80;99.90
20732;DHT22;10527;52.124;5.196;2023-02-15T01:44:57;3.80;99.90
20732;DHT22;10527;52.124;5.196;2023-02-15T01:47:23;3.70;99.90
20732;DHT22;10527;52.124;5.196;2023-02-15T01:50:34;3.60;99.90
20732;DHT22;10527;52.124;5.196;2023-02-15T01:53:09;3.60;99.90
20732;DHT22;10527;52.124;5.196;2023-02-15T01:55:55;3.60;99.90
20732;DHT22;10527;52.124;5.196;2023-02-15T01:58:29;3.50;99.90
20732;DHT22;10527;52.124;5.196;2023-02-15T02:00:58;3.50;99.90
20732;DHT22;10527;52.124;5.196;2023-02-15T02:06:39;3.50;99.90
20732;DHT22;10527;52.124;5.196;2023-02-15T02:09:06;3.50;99.90
20732;DHT22;10527;52.124;5.196;2023-02-15T02:11:34;3.50;99.90
20732;DHT22;10527;52.124;5.196;2023-02-15T02:14:01;3.50;99.90
20732;DHT22;10527;52.124;5.196;2023-02-15T02:19:55;3.40;99.90
20732;DHT22;10527;52.124;5.196;2023-02-15T02:22:49;3.40;99.90
20732;DHT22;10527;52.124;5.196;2023-02-15T02:31:44;3.40;99.90
20732;DHT22;10527;52.124;5.196;2023-02-15T02:34:33;3.40;99.90
20732;DHT22;10527;52.124;5.196;2023-02-15T02:37:49;3.40;99.90
20732;DHT22;10527;52.124;5.196;2023-02-15T02:43:32;3.30;99.90
20732;DHT22;10527;52.124;5.196;2023-02-15T02:46:26;3.30;99.90
20732;DHT22;10527;52.124;5.196;2023-02-15T02:48:58;3.20;99.90
20732;DHT22;10527;52.124;5.196;2023-02-15T02:51:27;3.20;99.90
20732;DHT22;10527;52.124;5.196;2023-02-15T02:53:57;3.20;99.90
20732;DHT22;10527;52.124;5.196;2023-02-15T02:56:37;3.30;99.90
20732;DHT22;10527;52.124;5.196;2023-02-15T02:59:23;3.20;99.90
20732;DHT22;10527;52.124;5.196;2023-02-15T03:02:05;3.20;99.90
20732;DHT22;10527;52.124;5.196;2023-02-15T03:04:49;3.20;99.90
20732;DHT22;10527;52.124;5.196;2023-02-15T03:07:27;3.10;99.90
20732;DHT22;10527;52.124;5.196;2023-02-15T03:09:58;3.10;99.90
20732;DHT22;10527;52.124;5.196;2023-02-15T03:12:32;3.10;99.90
20732;DHT22;10527;52.124;5.196;2023-02-15T03:17:41;3.20;99.90
20732;DHT22;10527;52.124;5.196;2023-02-15T03:20:36;3.10;99.90
20732;DHT22;10527;52.124;5.196;2023-02-15T03:23:07;3.10;99.90
20732;DHT22;10527;52.124;5.196;2023-02-15T03:25:44;3.10;99.90
20732;DHT22;10527;52.124;5.196;2023-02-15T03:28:23;3.10;99.90
20732;DHT22;10527;52.124;5.196;2023-02-15T03:31:02;3.10;99.90
20732;DHT22;10527;52.124;5.196;2023-02-15T03:33:31;3.10;99.90
20732;DHT22;10527;52.124;5.196;2023-02-15T03:39:11;3.00;99.90
20732;DHT22;10527;52.124;5.196;2023-02-15T03:41:54;3.00;99.90
20732;DHT22;10527;52.124;5.196;2023-02-15T03:44:29;3.00;99.90
20732;DHT22;10527;52.124;5.196;2023-02-15T03:47:05;3.00;99.90
20732;DHT22;10527;52.124;5.196;2023-02-15T03:49:50;3.00;99.90
20732;DHT22;10527;52.124;5.196;2023-02-15T03:52:23;3.00;99.90
20732;DHT22;10527;52.124;5.196;2023-02-15T03:54:52;3.00;99.90
20732;DHT22;10527;52.124;5.196;2023-02-15T03:57:28;3.00;99.90
20732;DHT22;10527;52.124;5.196;2023-02-15T04:00:27;3.00;99.90
20732;DHT22;10527;52.124;5.196;2023-02-15T04:03:38;3.00;99.90
20732;DHT22;10527;52.124;5.196;2023-02-15T04:06:09;2.90;99.90
20732;DHT22;10527;52.124;5.196;2023-02-15T04:08:36;3.00;99.90
20732;DHT22;10527;52.124;5.196;2023-02-15T04:11:31;2.90;99.90
20732;DHT22;10527;52.124;5.196;2023-02-15T04:13:58;3.00;99.90
20732;DHT22;10527;52.124;5.196;2023-02-15T04:16:25;2.90;99.90
20732;DHT22;10527;52.124;5.196;2023-02-15T04:18:52;2.90;99.90
20732;DHT22;10527;52.124;5.196;2023-02-15T04:21:37;2.90;99.90
20732;DHT22;10527;52.124;5.196;2023-02-15T04:24:25;2.90;99.90
20732;DHT22;10527;52.124;5.196;2023-02-15T04:27:11;2.90;99.90
20732;DHT22;10527;52.124;5.196;2023-02-15T04:29:37;2.80;99.90
20732;DHT22;10527;52.124;5.196;2023-02-15T04:32:06;2.90;99.90
20732;DHT22;10527;52.124;5.196;2023-02-15T04:34:33;2.90;99.90
20732;DHT22;10527;52.124;5.196;2023-02-15T04:37:00;2.80;99.90
20732;DHT22;10527;52.124;5.196;2023-02-15T04:39:30;2.80;99.90
20732;DHT22;10527;52.124;5.196;2023-02-15T04:42:00;2.80;99.90
20732;DHT22;10527;52.124;5.196;2023-02-15T04:44:27;2.80;99.90
20732;DHT22;10527;52.124;5.196;2023-02-15T04:46:53;2.80;99.90
20732;DHT22;10527;52.124;5.196;2023-02-15T04:49:21;2.80;99.90
20732;DHT22;10527;52.124;5.196;2023-02-15T04:51:47;2.80;99.90
20732;DHT22;10527;52.124;5.196;2023-02-15T04:54:17;2.80;99.90
20732;DHT22;10527;52.124;5.196;2023-02-15T04:56:44;2.80;99.90
20732;DHT22;10527;52.124;5.196;2023-02-15T04:59:11;2.80;99.90
20732;DHT22;10527;52.124;5.196;2023-02-15T05:01:38;2.80;99.90
20732;DHT22;10527;52.124;5.196;2023-02-15T05:04:08;2.80;99.90
20732;DHT22;10527;52.124;5.196;2023-02-15T05:06:35;2.80;99.90
20732;DHT22;10527;52.124;5.196;2023-02-15T05:09:02;2.80;99.90
20732;DHT22;10527;52.124;5.196;2023-02-15T05:11:29;2.80;99.90
20732;DHT22;10527;52.124;5.196;2023-02-15T05:13:56;2.80;99.90
20732;DHT22;10527;52.124;5.196;2023-02-15T05:16:23;2.80;99.90
20732;DHT22;10527;52.124;5.196;2023-02-15T05:18:50;2.80;99.90
20732;DHT22;10527;52.124;5.196;2023-02-15T05:21:20;2.80;99.90
20732;DHT22;10527;52.124;5.196;2023-02-15T05:23:47;2.80;99.90
20732;DHT22;10527;52.124;5.196;2023-02-15T05:26:17;2.80;99.90
20732;DHT22;10527;52.124;5.196;2023-02-15T05:29:06;2.80;99.90
20732;DHT22;10527;52.124;5.196;2023-02-15T05:31:34;2.80;99.90
20732;DHT22;10527;52.124;5.196;2023-02-15T05:34:02;2.80;99.90
20732;DHT22;10527;52.124;5.196;2023-02-15T05:36:32;2.80;99.90
20732;DHT22;10527;52.124;5.196;2023-02-15T05:38:59;2.80;99.90
20732;DHT22;10527;52.124;5.196;2023-02-15T05:41:26;2.80;99.90
20732;DHT22;10527;52.124;5.196;2023-02-15T05:43:55;2.80;99.90
20732;DHT22;10527;52.124;5.196;2023-02-15T05:46:26;2.80;99.90
20732;DHT22;10527;52.124;5.196;2023-02-15T05:48:55;2.80;99.90
20732;DHT22;10527;52.124;5.196;2023-02-15T05:51:22;2.80;99.90
20732;DHT22;10527;52.124;5.196;2023-02-15T05:53:48;2.80;99.90
20732;DHT22;10527;52.124;5.196;2023-02-15T05:56:15;2.80;99.90
20732;DHT22;10527;52.124;5.196;2023-02-15T05:58:42;2.80;99.90
20732;DHT22;10527;52.124;5.196;2023-02-15T06:01:22;2.80;99.90
20732;DHT22;10527;52.124;5.196;2023-02-15T06:03:49;2.80;99.90
20732;DHT22;10527;52.124;5.196;2023-02-15T06:06:16;2.70;99.90
20732;DHT22;10527;52.124;5.196;2023-02-15T06:08:43;2.60;99.90
20732;DHT22;10527;52.124;5.196;2023-02-15T06:11:10;2.70;99.90
20732;DHT22;10527;52.124;5.196;2023-02-15T06:13:40;2.70;99.90
20732;DHT22;10527;52.124;5.196;2023-02-15T06:16:07;2.70;99.90
20732;DHT22;10527;52.124;5.196;2023-02-15T06:18:37;2.60;99.90
20732;DHT22;10527;52.124;5.196;2023-02-15T06:21:03;2.60;99.90
20732;DHT22;10527;52.124;5.196;2023-02-15T06:23:30;2.60;99.90
20732;DHT22;10527;52.124;5.196;2023-02-15T06:25:59;2.60;99.90
20732;DHT22;10527;52.124;5.196;2023-02-15T06:28:34;2.60;99.90
20732;DHT22;10527;52.124;5.196;2023-02-15T06:31:00;2.60;99.90
20732;DHT22;10527;52.124;5.196;2023-02-15T06:33:27;2.60;99.90
20732;DHT22;10527;52.124;5.196;2023-02-15T06:35:57;2.60;99.90
20732;DHT22;10527;52.124;5.196;2023-02-15T06:38:24;2.60;99.90
20732;DHT22;10527;52.124;5.196;2023-02-15T06:40:52;2.50;99.90
20732;DHT22;10527;52.124;5.196;2023-02-15T06:43:27;2.60;99.90
20732;DHT22;10527;52.124;5.196;2023-02-15T06:45:57;2.50;99.90
20732;DHT22;10527;52.124;5.196;2023-02-15T06:48:27;2.50;99.90
20732;DHT22;10527;52.124;5.196;2023-02-15T06:50:54;2.60;99.90
20732;DHT22;10527;52.124;5.196;2023-02-15T06:53:21;2.60;99.90
20732;DHT22;10527;52.124;5.196;2023-02-15T06:55:48;2.60;99.90
20732;DHT22;10527;52.124;5.196;2023-02-15T06:58:22;2.60;99.90
20732;DHT22;10527;52.124;5.196;2023-02-15T07:00:48;2.60;99.90
20732;DHT22;10527;52.124;5.196;2023-02-15T07:03:19;2.60;99.90
20732;DHT22;10527;52.124;5.196;2023-02-15T07:05:46;2.60;99.90
20732;DHT22;10527;52.124;5.196;2023-02-15T07:08:15;2.60;99.90
20732;DHT22;10527;52.124;5.196;2023-02-15T07:10:49;2.70;99.90
20732;DHT22;10527;52.124;5.196;2023-02-15T07:13:26;2.70;99.90
20732;DHT22;10527;52.124;5.196;2023-02-15T07:15:53;2.70;99.90
20732;DHT22;10527;52.124;5.196;2023-02-15T07:18:20;2.70;99.90
20732;DHT22;10527;52.124;5.196;2023-02-15T07:20:49;2.70;99.90
20732;DHT22;10527;52.124;5.196;2023-02-15T07:23:16;2.70;99.90
20732;DHT22;10527;52.124;5.196;2023-02-15T07:25:42;2.80;99.90
20732;DHT22;10527;52.124;5.196;2023-02-15T07:28:09;2.80;99.90
20732;DHT22;10527;52.124;5.196;2023-02-15T07:30:39;2.80;99.90
20732;DHT22;10527;52.124;5.196;2023-02-15T07:33:06;2.80;99.90
20732;DHT22;10527;52.124;5.196;2023-02-15T07:35:55;2.80;99.90
20732;DHT22;10527;52.124;5.196;2023-02-15T07:38:34;2.80;99.90
20732;DHT22;10527;52.124;5.196;2023-02-15T07:41:05;2.90;99.90
20732;DHT22;10527;52.124;5.196;2023-02-15T07:43:39;2.90;99.90
20732;DHT22;10527;52.124;5.196;2023-02-15T07:46:09;2.90;99.90
20732;DHT22;10527;52.124;5.196;2023-02-15T07:48:39;3.00;99.90
20732;DHT22;10527;52.124;5.196;2023-02-15T07:51:08;3.00;99.90
20732;DHT22;10527;52.124;5.196;2023-02-15T07:53:39;3.00;99.90
20732;DHT22;10527;52.124;5.196;2023-02-15T07:56:11;3.00;99.90
20732;DHT22;10527;52.124;5.196;2023-02-15T07:58:39;3.00;99.90
20732;DHT22;10527;52.124;5.196;2023-02-15T08:01:19;3.10;99.90
20732;DHT22;10527;52.124;5.196;2023-02-15T08:03:54;3.00;99.90
20732;DHT22;10527;52.124;5.196;2023-02-15T08:06:23;3.20;99.90
20732;DHT22;10527;52.124;5.196;2023-02-15T08:08:52;3.10;99.90
20732;DHT22;10527;52.124;5.196;2023-02-15T08:11:28;3.10;99.90
20732;DHT22;10527;52.124;5.196;2023-02-15T08:14:09;3.20;99.90
20732;DHT22;10527;52.124;5.196;2023-02-15T08:19:30;3.20;99.90
20732;DHT22;10527;52.124;5.196;2023-02-15T08:22:04;3.30;99.90
20732;DHT22;10527;52.124;5.196;2023-02-15T08:24:36;3.40;99.90
20732;DHT22;10527;52.124;5.196;2023-02-15T08:27:12;3.40;99.90
20732;DHT22;10527;52.124;5.196;2023-02-15T08:29:39;3.50;99.90
20732;DHT22;10527;52.124;5.196;2023-02-15T08:32:17;3.50;99.90
20732;DHT22;10527;52.124;5.196;2023-02-15T08:34:45;3.50;99.90
20732;DHT22;10527;52.124;5.196;2023-02-15T08:37:11;3.50;99.90
20732;DHT22;10527;52.124;5.196;2023-02-15T08:39:38;3.50;99.90
20732;DHT22;10527;52.124;5.196;2023-02-15T08:42:07;3.60;99.90
20732;DHT22;10527;52.124;5.196;2023-02-15T08:44:34;3.60;99.90
20732;DHT22;10527;52.124;5.196;2023-02-15T08:47:01;3.60;99.90
20732;DHT22;10527;52.124;5.196;2023-02-15T08:49:30;3.60;99.90
20732;DHT22;10527;52.124;5.196;2023-02-15T08:51:57;3.60;99.90
20732;DHT22;10527;52.124;5.196;2023-02-15T08:54:27;3.70;99.90
20732;DHT22;10527;52.124;5.196;2023-02-15T08:56:54;3.80;99.90
20732;DHT22;10527;52.124;5.196;2023-02-15T08:59:24;3.80;99.90
20732;DHT22;10527;52.124;5.196;2023-02-15T09:01:56;3.90;99.90
20732;DHT22;10527;52.124;5.196;2023-02-15T09:04:26;3.90;99.90
20732;DHT22;10527;52.124;5.196;2023-02-15T09:06:53;4.00;99.90
20732;DHT22;10527;52.124;5.196;2023-02-15T09:09:21;3.90;99.90
20732;DHT22;10527;52.124;5.196;2023-02-15T09:11:51;4.00;99.90
20732;DHT22;10527;52.124;5.196;2023-02-15T09:14:25;4.10;99.90
20732;DHT22;10527;52.124;5.196;2023-02-15T09:16:53;4.10;99.90
20732;DHT22;10527;52.124;5.196;2023-02-15T09:19:22;4.20;99.90
20732;DHT22;10527;52.124;5.196;2023-02-15T09:21:52;4.20;99.90
20732;DHT22;10527;52.124;5.196;2023-02-15T09:24:19;4.30;99.90
20732;DHT22;10527;52.124;5.196;2023-02-15T09:26:49;4.30;99.90
20732;DHT22;10527;52.124;5.196;2023-02-15T09:29:19;4.30;99.90
20732;DHT22;10527;52.124;5.196;2023-02-15T09:31:48;4.40;99.90
20732;DHT22;10527;52.124;5.196;2023-02-15T09:34:18;4.40;99.90
20732;DHT22;10527;52.124;5.196;2023-02-15T09:36:48;4.50;99.90
20732;DHT22;10527;52.124;5.196;2023-02-15T09:39:24;4.60;99.90
20732;DHT22;10527;52.124;5.196;2023-02-15T09:50:34;5.20;99.90
20732;DHT22;10527;52.124;5.196;2023-02-15T09:56:42;5.50;99.90
20732;DHT22;10527;52.124;5.196;2023-02-15T09:59:31;5.70;99.90
20732;DHT22;10527;52.124;5.196;2023-02-15T10:23:52;6.70;99.90
20732;DHT22;10527;52.124;5.196;2023-02-15T10:26:34;6.90;99.90
20732;DHT22;10527;52.124;5.196;2023-02-15T10:29:34;7.00;99.90
20732;DHT22;10527;52.124;5.196;2023-02-15T10:32:25;7.00;99.90
20732;DHT22;10527;52.124;5.196;2023-02-15T10:35:10;7.00;99.90
20732;DHT22;10527;52.124;5.196;2023-02-15T10:37:55;7.10;99.90
20732;DHT22;10527;52.124;5.196;2023-02-15T10:49:52;7.70;99.90
20732;DHT22;10527;52.124;5.196;2023-02-15T11:00:19;8.10;99.90
20732;DHT22;10527;52.124;5.196;2023-02-15T11:06:16;7.90;99.90
20732;DHT22;10527;52.124;5.196;2023-02-15T11:08:56;7.90;99.90
20732;DHT22;10527;52.124;5.196;2023-02-15T11:11:36;7.90;99.90
20732;DHT22;10527;52.124;5.196;2023-02-15T11:14:23;7.90;99.90
20732;DHT22;10527;52.124;5.196;2023-02-15T11:17:14;7.90;99.90
20732;DHT22;10527;52.124;5.196;2023-02-15T11:22:59;7.80;99.90
20732;DHT22;10527;52.124;5.196;2023-02-15T11:25:34;7.90;99.90
20732;DHT22;10527;52.124;5.196;2023-02-15T11:28:18;8.00;99.90
20732;DHT22;10527;52.124;5.196;2023-02-15T11:30:55;8.00;99.90
20732;DHT22;10527;52.124;5.196;2023-02-15T11:33:31;8.20;99.90
20732;DHT22;10527;52.124;5.196;2023-02-15T11:36:11;8.30;99.90
20732;DHT22;10527;52.124;5.196;2023-02-15T11:38:50;8.30;99.90
20732;DHT22;10527;52.124;5.196;2023-02-15T11:41:27;8.50;99.90
20732;DHT22;10527;52.124;5.196;2023-02-15T11:44:10;8.40;99.90
20732;DHT22;10527;52.124;5.196;2023-02-15T11:46:42;8.60;99.90
20732;DHT22;10527;52.124;5.196;2023-02-15T11:51:58;8.60;99.90
20732;DHT22;10527;52.124;5.196;2023-02-15T11:54:30;8.90;99.90
20732;DHT22;10527;52.124;5.196;2023-02-15T11:59:51;8.90;99.90
20732;DHT22;10527;52.124;5.196;2023-02-15T12:02:24;9.10;99.90
20732;DHT22;10527;52.124;5.196;2023-02-15T12:05:00;9.20;99.90
20732;DHT22;10527;52.124;5.196;2023-02-15T12:07:40;9.40;99.90
20732;DHT22;10527;52.124;5.196;2023-02-15T12:10:24;9.40;99.90
20732;DHT22;10527;52.124;5.196;2023-02-15T12:13:15;9.50;99.90
20732;DHT22;10527;52.124;5.196;2023-02-15T12:15:46;9.50;99.90
20732;DHT22;10527;52.124;5.196;2023-02-15T12:18:35;9.40;99.90
20732;DHT22;10527;52.124;5.196;2023-02-15T12:21:23;9.40;99.90
20732;DHT22;10527;52.124;5.196;2023-02-15T12:24:26;9.60;99.90
20732;DHT22;10527;52.124;5.196;2023-02-15T12:27:11;9.60;99.90
20732;DHT22;10527;52.124;5.196;2023-02-15T12:29:46;9.90;99.90
20732;DHT22;10527;52.124;5.196;2023-02-15T12:32:29;9.90;99.90
20732;DHT22;10527;52.124;5.196;2023-02-15T12:35:14;10.00;99.90
20732;DHT22;10527;52.124;5.196;2023-02-15T12:40:36;10.20;99.90
20732;DHT22;10527;52.124;5.196;2023-02-15T12:43:04;10.30;99.90
20732;DHT22;10527;52.124;5.196;2023-02-15T12:45:37;10.20;99.90
20732;DHT22;10527;52.124;5.196;2023-02-15T12:48:16;10.30;99.90
20732;DHT22;10527;52.124;5.196;2023-02-15T12:50:50;10.50;99.90
20732;DHT22;10527;52.124;5.196;2023-02-15T12:53:23;10.60;99.90
20732;DHT22;10527;52.124;5.196;2023-02-15T12:56:03;10.60;99.90
20732;DHT22;10527;52.124;5.196;2023-02-15T12:58:39;10.70;99.90
20732;DHT22;10527;52.124;5.196;2023-02-15T13:01:18;10.70;99.90
20732;DHT22;10527;52.124;5.196;2023-02-15T13:04:04;10.50;99.90
20732;DHT22;10527;52.124;5.196;2023-02-15T13:06:34;10.40;99.90
20732;DHT22;10527;52.124;5.196;2023-02-15T13:12:21;10.70;99.90
20732;DHT22;10527;52.124;5.196;2023-02-15T13:14:54;10.60;99.90
20732;DHT22;10527;52.124;5.196;2023-02-15T13:17:28;10.70;99.90
20732;DHT22;10527;52.124;5.196;2023-02-15T13:20:20;10.70;99.90
20732;DHT22;10527;52.124;5.196;2023-02-15T13:23:00;10.60;99.90
20732;DHT22;10527;52.124;5.196;2023-02-15T13:25:46;10.60;99.90
20732;DHT22;10527;52.124;5.196;2023-02-15T13:28:18;10.80;99.90
20732;DHT22;10527;52.124;5.196;2023-02-15T13:30:57;10.70;99.90
20732;DHT22;10527;52.124;5.196;2023-02-15T13:33:31;10.90;99.90
20732;DHT22;10527;52.124;5.196;2023-02-15T13:36:08;10.90;99.90
20732;DHT22;10527;52.124;5.196;2023-02-15T13:42:05;10.90;99.90
20732;DHT22;10527;52.124;5.196;2023-02-15T13:45:20;11.00;99.90
20732;DHT22;10527;52.124;5.196;2023-02-15T13:51:13;10.90;99.90
20732;DHT22;10527;52.124;5.196;2023-02-15T14:10:59;10.90;99.90
20732;DHT22;10527;52.124;5.196;2023-02-15T14:20:00;10.90;99.90
20732;DHT22;10527;52.124;5.196;2023-02-15T14:26:16;11.00;99.90
20732;DHT22;10527;52.124;5.196;2023-02-15T14:29:16;11.00;99.90
20732;DHT22;10527;52.124;5.196;2023-02-15T14:32:01;11.00;99.90
20732;DHT22;10527;52.124;5.196;2023-02-15T14:34:56;10.90;99.90
20732;DHT22;10527;52.124;5.196;2023-02-15T14:49:19;11.00;99.90
20732;DHT22;10527;52.124;5.196;2023-02-15T14:56:44;11.00;99.90
20732;DHT22;10527;52.124;5.196;2023-02-15T14:59:22;11.00;99.90
20732;DHT22;10527;52.124;5.196;2023-02-15T15:02:20;11.00;99.90
20732;DHT22;10527;52.124;5.196;2023-02-15T15:05:20;11.00;99.90
20732;DHT22;10527;52.124;5.196;2023-02-15T15:07:53;11.00;99.90
20732;DHT22;10527;52.124;5.196;2023-02-15T15:10:45;11.00;99.90
20732;DHT22;10527;52.124;5.196;2023-02-15T15:16:24;11.00;99.90
20732;DHT22;10527;52.124;5.196;2023-02-15T15:19:12;10.90;99.90
20732;DHT22;10527;52.124;5.196;2023-02-15T15:22:31;10.90;99.90
20732;DHT22;10527;52.124;5.196;2023-02-15T15:25:01;10.80;99.90
20732;DHT22;10527;52.124;5.196;2023-02-15T15:27:51;10.80;99.90
20732;DHT22;10527;52.124;5.196;2023-02-15T15:50:43;10.60;99.90
20732;DHT22;10527;52.124;5.196;2023-02-15T15:53:20;10.50;99.90
20732;DHT22;10527;52.124;5.196;2023-02-15T15:55:52;10.50;99.90
20732;DHT22;10527;52.124;5.196;2023-02-15T15:58:25;10.60;99.90
20732;DHT22;10527;52.124;5.196;2023-02-15T16:01:07;10.50;99.90
20732;DHT22;10527;52.124;5.196;2023-02-15T16:03:36;10.50;99.90
20732;DHT22;10527;52.124;5.196;2023-02-15T16:06:03;10.40;99.90
20732;DHT22;10527;52.124;5.196;2023-02-15T16:08:33;10.40;99.90
20732;DHT22;10527;52.124;5.196;2023-02-15T16:11:15;10.40;99.90
20732;DHT22;10527;52.124;5.196;2023-02-15T16:13:45;10.40;99.90
20732;DHT22;10527;52.124;5.196;2023-02-15T16:16:20;10.40;99.90
20732;DHT22;10527;52.124;5.196;2023-02-15T16:18:51;10.30;99.90
20732;DHT22;10527;52.124;5.196;2023-02-15T16:21:21;10.30;99.90
20732;DHT22;10527;52.124;5.196;2023-02-15T16:27:29;10.20;99.90
20732;DHT22;10527;52.124;5.196;2023-02-15T16:33:12;10.20;99.90
20732;DHT22;10527;52.124;5.196;2023-02-15T16:35:57;10.20;99.90
20732;DHT22;10527;52.124;5.196;2023-02-15T16:41:16;10.10;99.90
20732;DHT22;10527;52.124;5.196;2023-02-15T16:43:59;10.00;99.90
20732;DHT22;10527;52.124;5.196;2023-02-15T16:46:36;10.00;99.90
20732;DHT22;10527;52.124;5.196;2023-02-15T16:49:16;10.00;99.90
20732;DHT22;10527;52.124;5.196;2023-02-15T16:52:00;10.00;99.90
20732;DHT22;10527;52.124;5.196;2023-02-15T16:54:30;9.90;99.90
20732;DHT22;10527;52.124;5.196;2023-02-15T16:56:58;9.90;99.90
20732;DHT22;10527;52.124;5.196;2023-02-15T16:59:47;9.80;99.90
20732;DHT22;10527;52.124;5.196;2023-02-15T17:02:23;9.80;99.90
20732;DHT22;10527;52.124;5.196;2023-02-15T17:05:17;9.80;99.90
20732;DHT22;10527;52.124;5.196;2023-02-15T17:11:03;9.80;99.90
20732;DHT22;10527;52.124;5.196;2023-02-15T17:13:32;9.80;99.90
20732;DHT22;10527;52.124;5.196;2023-02-15T17:21:10;9.70;99.90
20732;DHT22;10527;52.124;5.196;2023-02-15T17:23:45;9.60;99.90
20732;DHT22;10527;52.124;5.196;2023-02-15T17:26:32;9.60;99.90
20732;DHT22;10527;52.124;5.196;2023-02-15T17:29:11;9.50;99.90
20732;DHT22;10527;52.124;5.196;2023-02-15T17:31:56;9.50;99.90
20732;DHT22;10527;52.124;5.196;2023-02-15T17:37:28;9.50;99.90
20732;DHT22;10527;52.124;5.196;2023-02-15T17:39:57;9.50;99.90
20732;DHT22;10527;52.124;5.196;2023-02-15T17:42:26;9.40;99.90
20732;DHT22;10527;52.124;5.196;2023-02-15T17:44:55;9.40;99.90
20732;DHT22;10527;52.124;5.196;2023-02-15T17:47:23;9.40;99.90
20732;DHT22;10527;52.124;5.196;2023-02-15T17:49:53;9.30;99.90
20732;DHT22;10527;52.124;5.196;2023-02-15T17:52:20;9.30;99.90
20732;DHT22;10527;52.124;5.196;2023-02-15T17:54:47;9.30;99.90
20732;DHT22;10527;52.124;5.196;2023-02-15T17:57:39;9.30;99.90
20732;DHT22;10527;52.124;5.196;2023-02-15T18:00:07;9.30;99.90
20732;DHT22;10527;52.124;5.196;2023-02-15T18:02:58;9.30;99.90
20732;DHT22;10527;52.124;5.196;2023-02-15T18:05:44;9.20;99.90
20732;DHT22;10527;52.124;5.196;2023-02-15T18:08:31;9.20;99.90
20732;DHT22;10527;52.124;5.196;2023-02-15T18:11:17;9.20;99.90
20732;DHT22;10527;52.124;5.196;2023-02-15T18:14:00;9.20;99.90
20732;DHT22;10527;52.124;5.196;2023-02-15T18:16:31;9.20;99.90
20732;DHT22;10527;52.124;5.196;2023-02-15T18:19:02;9.10;99.90
20732;DHT22;10527;52.124;5.196;2023-02-15T18:21:32;9.10;99.90
20732;DHT22;10527;52.124;5.196;2023-02-15T18:23:59;9.10;99.90
20732;DHT22;10527;52.124;5.196;2023-02-15T18:26:27;9.10;99.90
20732;DHT22;10527;52.124;5.196;2023-02-15T18:28:55;9.00;99.90
20732;DHT22;10527;52.124;5.196;2023-02-15T18:31:22;9.00;99.90
20732;DHT22;10527;52.124;5.196;2023-02-15T18:33:53;9.00;99.90
20732;DHT22;10527;52.124;5.196;2023-02-15T18:36:27;9.00;99.90
20732;DHT22;10527;52.124;5.196;2023-02-15T18:38:58;8.90;99.90
20732;DHT22;10527;52.124;5.196;2023-02-15T18:41:31;8.90;99.90
20732;DHT22;10527;52.124;5.196;2023-02-15T18:44:01;8.90;99.90
20732;DHT22;10527;52.124;5.196;2023-02-15T18:46:28;8.90;99.90
20732;DHT22;10527;52.124;5.196;2023-02-15T18:48:54;8.90;99.90
20732;DHT22;10527;52.124;5.196;2023-02-15T18:51:22;8.80;99.90
20732;DHT22;10527;52.124;5.196;2023-02-15T18:53:51;8.80;99.90
20732;DHT22;10527;52.124;5.196;2023-02-15T18:56:20;8.80;99.90
20732;DHT22;10527;52.124;5.196;2023-02-15T18:58:48;8.70;99.90
20732;DHT22;10527;52.124;5.196;2023-02-15T19:01:18;8.70;99.90
20732;DHT22;10527;52.124;5.196;2023-02-15T19:03:48;8.70;99.90
20732;DHT22;10527;52.124;5.196;2023-02-15T19:06:21;8.70;99.90
20732;DHT22;10527;52.124;5.196;2023-02-15T19:08:51;8.70;99.90
20732;DHT22;10527;52.124;5.196;2023-02-15T19:11:21;8.70;99.90
20732;DHT22;10527;52.124;5.196;2023-02-15T19:13:51;8.60;99.90
20732;DHT22;10527;52.124;5.196;2023-02-15T19:16:28;8.60;99.90
20732;DHT22;10527;52.124;5.196;2023-02-15T19:18:57;8.60;99.90
20732;DHT22;10527;52.124;5.196;2023-02-15T19:21:27;8.60;99.90
20732;DHT22;10527;52.124;5.196;2023-02-15T19:24:06;8.60;99.90
20732;DHT22;10527;52.124;5.196;2023-02-15T19:26:39;8.50;99.90
20732;DHT22;10527;52.124;5.196;2023-02-15T19:29:15;8.50;99.90
20732;DHT22;10527;52.124;5.196;2023-02-15T19:31:48;8.50;99.90
20732;DHT22;10527;52.124;5.196;2023-02-15T19:34:16;8.50;99.90